Hauptseite
METAR-TAF:

METAR-TAF

Flughäfen :

Flughafen Maun

Maun, Botsuana

Breite: 19-59S, Länge: 023-25E, Höhe: 945 m

Beobachtung

Neuester Wetterbericht von vor 16 Minuten, um 22:00 UTC
Wind 6 kt aus Südost
Temperatur 17°C
Luftfeuchtigkeit 42%
Luftdruck 1023 hPa
Sichtweite 10 km oder mehr
keine Wolken unter 1500 m und keine Kumulonimbus oder Gewitterwolken

METAR: FBMN 022200Z 13006KT CAVOK 17/04 Q1023

Zeit: 00:16 (22:16 UTC)

Prognose

Neuester Wetterbericht von vor 10 Stunden und 16 Minuten, um 12:00 UTC
Gültige Prognose vom 02 um 15 UTC bis 02 um 24 UTC
Wind 13 kt aus Ost
Sichtweite 10 km oder mehr
keine Wolken unter 1500 m und keine Kumulonimbus oder Gewitterwolken

TAF: FBMN 021200Z 0215/0224 09013KT CAVOK

Wetterbeobachtungen und Prognosen von mehr als 4000 Flughäfen (METAR und TAF Bericht).

Die verfügbaren Stationen werden durch gelbe und rote Markierungen auf der Karte dargestellt.

Führen Sie die Maus auf sie, um den Namen der Station zu sehen.

Darauf klicken, um die Beobachtung von Wetterbeobachtungen und Prognosen zu sehen.

Um die Karte zu ändern : klicken Sie auf den grünen Tasten mit einem schwarzen Kreuz Zum Vergrößern, auf den grünen Button mit einem Gedankenstrich zu verkleinern, oder auf die grünen Pfeile für benachbarte Karten.


METAR-TAF: